Гидроавиапорт

Карта отелей и гостиниц, располагающихся рядом с аэропортом Гидроавиапорт :

Гидроавиапорт
Рыбинск
Ярославская область 58° 3' 50.2884" N, 38° 49' 13.0404" E
Гидроавиапорт
Рыбинск
Ярославская область 58° 3' 50.2884" N, 38° 49' 13.0404" E
Код аэродрома ИКАО
ZF87
Код аэродрома RU
ЗФ87
Координаты
N58.06397° E038.82029°
Превышение над уровнем моря
82
Основная полоса
11/29
Курс магнитный
112/292
Длина основной ВПП
840
Ширина основной ВПП
100
Покрытие основной ВПП
Вода
Освещение ВПП
Нет
Тип: 
Аэродром
Класс аэродрома: 
Принадлежность: 
АОН
Статус: 
Недействующий
Сайт: 
E-mail аэродрома: 
kuznetsov@rybadm.ru
Страна: 
Россия
Регион: 
Ярославская область
Город: 
Рыбинск
Дополнительная информация: 
Владелец ПП: Администрация городского округа город Рыбинск.

Найти трансфер

С помощью этой формы Вы можете найти трансфер из аэропорта Гидроавиапорт в город, аэропорт или вокзал:

Карта места

Javascript is required to view this map.

Погода в аэропортах:

Авиационная погода в Самаре

Регион: 
Погода METAR: 
UWWW 281300Z 18008MPS 9000 -FZRA OVC008 M01/M03 Q1016 R15/590234 TEMPO 2000 FZRA RMK QFE750/1000
Время наблюдения
2021-11-28T13:00:00Z
Температура C
-1.0
Точка росы
-3.0
Направление ветра
180
Скорость ветра (узлы)
16
Метео видимость
5.59
Явления погоды
-FZRA
Условия полета
IFR
Аэропорт подробнее: 

Авиационная погода в Белгороде

Регион: 
Погода METAR: 
UUOB 281300Z 17002MPS 7000 2000E BR OVC012 07/06 Q1008 R11/290060 NOSIG
Время наблюдения
2021-11-28T13:00:00Z
Температура C
7.0
Точка росы
6.0
Направление ветра
170
Скорость ветра (узлы)
4
Метео видимость
4.35
Явления погоды
BR
Условия полета
MVFR
Аэропорт подробнее: 

Авиационная погода в Игнатьево

Регион: 
Погода METAR: 
UHBB 281300Z 33002MPS 4200 -SHSN BKN033CB M09/M10 Q1022 R36/821060 NOSIG RMK QFE749/0998
Время наблюдения
2021-11-28T13:00:00Z
Температура C
-9.0
Точка росы
-10.0
Направление ветра
330
Скорость ветра (узлы)
4
Метео видимость
2.61
Явления погоды
-SHSN
Условия полета
IFR
Аэропорт подробнее: 

Авиационная погода в Борисполе

Регион: 
Погода METAR: 
UKBB 281300Z 12005MPS 0750 0500W R36R/1000D R36L/0900D PRFG OVC001 04/04 Q1003 TEMPO 0300 FG VV001
Время наблюдения
2021-11-28T13:00:00Z
Температура C
4.0
Точка росы
4.0
Направление ветра
120
Скорость ветра (узлы)
10
Метео видимость
0.47
Явления погоды
PRFG
Условия полета
LIFR
Аэропорт подробнее: